createdAt,value
2022-08-16T00:02:56.195Z,66.0
2022-08-16T00:08:04.882Z,65.9
2022-08-16T00:13:09.182Z,66.6
2022-08-16T00:18:05.653Z,66.5
2022-08-16T00:23:24.522Z,66.6
2022-08-16T00:33:59.037Z,66.7
2022-08-16T00:38:43.392Z,66.6
2022-08-16T00:43:47.744Z,66.8
2022-08-16T00:48:54.138Z,66.8
2022-08-16T00:54:00.678Z,66.9
2022-08-16T01:04:29.176Z,67.3
2022-08-16T01:09:47.964Z,67.1
2022-08-16T01:14:29.928Z,67.4
2022-08-16T01:19:57.145Z,67.7
2022-08-16T01:25:03.085Z,66.9
2022-08-16T01:29:58.609Z,66.4
2022-08-16T01:34:53.647Z,66.2
2022-08-16T01:39:58.436Z,66.0
2022-08-16T01:45:04.750Z,65.7
2022-08-16T01:50:42.184Z,65.8
2022-08-16T01:55:41.637Z,65.8
2022-08-16T02:00:29.328Z,65.6
2022-08-16T02:05:52.106Z,65.9
2022-08-16T02:10:36.981Z,65.8
2022-08-16T02:20:49.920Z,65.4
2022-08-16T02:25:56.364Z,65.4
2022-08-16T02:31:02.799Z,65.2
2022-08-16T02:36:14.055Z,64.9
2022-08-16T02:41:15.572Z,65.3
2022-08-16T02:51:52.600Z,65.5
2022-08-16T02:56:35.035Z,65.3
2022-08-16T03:01:41.588Z,65.6
2022-08-16T03:07:11.842Z,66.1
2022-08-16T03:12:16.545Z,66.3
2022-08-16T03:17:01.856Z,66.1
2022-08-16T03:22:30.973Z,66.4
2022-08-16T03:27:13.400Z,67.4
2022-08-16T03:32:19.782Z,68.0
2022-08-16T03:37:26.163Z,68.1
2022-08-16T03:43:18.466Z,67.8
2022-08-16T03:47:59.792Z,67.7
2022-08-16T03:52:45.492Z,66.6
2022-08-16T03:57:52.239Z,66.6
2022-08-16T04:02:58.119Z,68.2
2022-08-16T04:08:23.486Z,68.0
2022-08-16T04:13:20.459Z,67.9
2022-08-16T04:23:23.689Z,67.1
2022-08-16T04:34:00.504Z,68.5
2022-08-16T04:38:43.047Z,66.3
2022-08-16T04:43:49.532Z,66.5
2022-08-16T04:49:19.985Z,67.1
2022-08-16T04:54:02.297Z,66.5
2022-08-16T04:59:32.722Z,67.5
2022-08-16T05:04:35.186Z,67.4
2022-08-16T05:09:23.136Z,67.5
2022-08-16T05:14:45.721Z,67.3
2022-08-16T05:19:35.861Z,67.8
2022-08-16T05:24:40.952Z,67.9
2022-08-16T05:30:00.931Z,68.1
2022-08-16T05:35:14.035Z,68.4
2022-08-16T05:40:57.258Z,68.2
2022-08-16T05:45:07.482Z,69.2
2022-08-16T05:50:03.853Z,69.5
2022-08-16T06:00:26.679Z,70.7
2022-08-16T06:05:36.230Z,72.7
2022-08-16T06:10:32.402Z,72.5
2022-08-16T06:15:59.929Z,72.8
2022-08-16T06:20:55.582Z,73.9
2022-08-16T06:26:59.481Z,74.3
2022-08-16T06:31:06.094Z,76.3
2022-08-16T06:36:14.101Z,74.7
2022-08-16T06:41:18.862Z,76.0
2022-08-16T06:46:15.223Z,75.1
2022-08-16T06:51:52.510Z,76.5
2022-08-16T06:56:39.639Z,76.7
2022-08-16T07:01:53.716Z,77.2
2022-08-16T07:07:12.497Z,76.2
2022-08-16T07:12:03.266Z,76.4
2022-08-16T07:17:08.350Z,76.1
2022-08-16T07:22:39.223Z,76.4
2022-08-16T07:27:19.795Z,75.9
2022-08-16T07:32:31.748Z,76.4
2022-08-16T07:42:45.526Z,75.0
2022-08-16T07:47:52.160Z,73.7
2022-08-16T07:53:18.590Z,71.9
2022-08-16T07:58:04.922Z,69.4
2022-08-16T08:03:36.139Z,67.1
2022-08-16T08:08:49.108Z,65.5
2022-08-16T08:13:31.015Z,63.1
2022-08-16T08:19:42.784Z,61.4
2022-08-16T08:28:33.965Z,60.4
2022-08-16T08:33:51.819Z,58.5
2022-08-16T08:39:13.131Z,55.8
2022-08-16T08:43:54.346Z,55.3
2022-08-16T08:49:02.362Z,54.0
2022-08-16T08:54:09.262Z,53.0
2022-08-16T08:59:43.523Z,52.4
2022-08-16T09:09:37.817Z,50.7
2022-08-16T09:15:03.258Z,49.4
2022-08-16T09:19:40.768Z,48.3
2022-08-16T09:24:59.826Z,47.5
2022-08-16T09:30:33.670Z,46.6
2022-08-16T09:35:16.588Z,47.2
2022-08-16T09:40:43.986Z,46.0
2022-08-16T09:45:25.493Z,45.1
2022-08-16T09:50:22.551Z,44.6
2022-08-16T09:55:44.245Z,43.2
2022-08-16T10:00:44.360Z,43.0
2022-08-16T10:07:15.051Z,43.6
2022-08-16T10:11:24.741Z,43.4
2022-08-16T10:16:07.883Z,42.1
2022-08-16T10:21:00.163Z,41.8
2022-08-16T10:27:16.247Z,41.2
2022-08-16T10:31:43.500Z,40.8
2022-08-16T10:36:39.278Z,41.5
2022-08-16T10:47:30.432Z,39.5
2022-08-16T10:57:41.410Z,38.6
2022-08-16T11:02:58.614Z,38.0
2022-08-16T11:07:45.420Z,38.3
2022-08-16T11:13:21.035Z,37.8
2022-08-16T11:23:13.445Z,37.8
2022-08-16T11:34:20.812Z,38.5
2022-08-16T11:38:51.974Z,39.1
2022-08-16T11:49:14.367Z,38.8
2022-08-16T11:53:56.365Z,39.6
2022-08-16T11:59:02.922Z,39.8
2022-08-16T12:04:09.416Z,41.3
2022-08-16T12:09:21.321Z,41.3
2022-08-16T12:14:27.719Z,41.9
2022-08-16T12:19:33.676Z,42.3
2022-08-16T12:25:00.696Z,43.0
2022-08-16T12:34:53.527Z,41.9
2022-08-16T12:45:09.819Z,42.7
2022-08-16T12:50:06.191Z,43.1
2022-08-16T12:55:14.345Z,43.1
2022-08-16T13:06:01.969Z,43.6
2022-08-16T13:10:45.295Z,42.9
2022-08-16T13:15:57.191Z,42.5
2022-08-16T13:21:23.329Z,41.3
2022-08-16T13:26:07.939Z,41.5
2022-08-16T13:31:14.254Z,40.6
2022-08-16T13:41:30.311Z,41.9
2022-08-16T13:46:32.954Z,41.8
2022-08-16T13:52:23.787Z,42.1
2022-08-16T13:57:53.395Z,42.1
2022-08-16T14:03:01.903Z,41.6
2022-08-16T14:07:44.156Z,40.9
2022-08-16T14:12:54.509Z,41.4
2022-08-16T14:18:21.157Z,40.6
2022-08-16T14:23:03.253Z,40.5
2022-08-16T14:28:09.857Z,40.6
2022-08-16T14:34:29.942Z,40.4
2022-08-16T14:38:23.650Z,39.2
2022-08-16T14:44:06.050Z,40.2
2022-08-16T14:49:03.459Z,39.7
2022-08-16T14:59:16.340Z,40.2
2022-08-16T15:04:48.062Z,40.5
2022-08-16T15:14:36.042Z,40.9
2022-08-16T15:19:52.444Z,41.1
2022-08-16T15:25:18.878Z,40.8
2022-08-16T15:30:56.706Z,41.2
2022-08-16T15:35:03.425Z,41.7
2022-08-16T15:40:32.397Z,42.5
2022-08-16T15:46:03.838Z,41.8
2022-08-16T15:51:11.134Z,42.6
2022-08-16T15:56:21.530Z,42.8
2022-08-16T16:11:36.703Z,42.7
2022-08-16T16:17:07.151Z,43.7
2022-08-16T16:21:49.571Z,43.7
2022-08-16T16:26:45.941Z,43.8
2022-08-16T16:32:02.350Z,43.9
2022-08-16T16:37:09.986Z,44.6
2022-08-16T16:42:35.285Z,44.5
2022-08-16T16:48:45.857Z,45.1
2022-08-16T16:52:31.405Z,44.9
2022-08-16T16:57:55.754Z,45.7
2022-08-16T17:02:49.714Z,45.6
2022-08-16T17:07:48.681Z,45.7
2022-08-16T17:13:18.912Z,45.7
2022-08-16T17:18:01.893Z,45.9
2022-08-16T17:23:07.792Z,46.2
2022-08-16T17:39:27.126Z,46.6
2022-08-16T17:43:23.258Z,47.0
2022-08-16T17:48:39.686Z,47.5
2022-08-16T18:00:05.793Z,47.8
2022-08-16T18:04:09.165Z,48.0
2022-08-16T18:09:06.925Z,48.6
2022-08-16T18:24:16.700Z,49.5
2022-08-16T18:29:33.103Z,49.9
2022-08-16T18:34:39.618Z,50.0
2022-08-16T18:40:10.630Z,50.3
2022-08-16T18:49:59.364Z,51.0
2022-08-16T18:55:14.055Z,51.2
2022-08-16T19:00:12.218Z,51.7
2022-08-16T19:10:39.021Z,52.8
2022-08-16T19:20:37.808Z,53.0
2022-08-16T19:25:48.653Z,53.2
2022-08-16T19:30:54.803Z,53.4
2022-08-16T19:42:53.924Z,54.2
2022-08-16T19:56:51.942Z,55.0
2022-08-16T20:01:58.392Z,55.3
2022-08-16T20:07:14.789Z,55.4
2022-08-16T20:12:21.184Z,55.8
2022-08-16T20:17:50.826Z,56.1
2022-08-16T20:22:54.743Z,56.4
2022-08-16T20:27:44.857Z,56.7
2022-08-16T20:32:51.551Z,56.9
2022-08-16T20:37:57.755Z,57.7
2022-08-16T20:43:28.187Z,57.3
2022-08-16T20:48:10.585Z,57.6
2022-08-16T20:53:37.349Z,57.7
2022-08-16T20:58:47.507Z,57.9
2022-08-16T21:03:51.450Z,58.1
2022-08-16T21:08:51.914Z,58.4
2022-08-16T21:13:44.181Z,58.5
2022-08-16T21:18:50.550Z,58.4
2022-08-16T21:24:41.016Z,58.5
2022-08-16T21:33:59.660Z,58.7
2022-08-16T21:39:16.195Z,58.9
2022-08-16T21:49:53.022Z,59.1
2022-08-16T21:54:35.369Z,59.1
2022-08-16T21:59:41.827Z,59.2
2022-08-16T22:04:52.160Z,59.3
2022-08-16T22:09:56.221Z,59.4
2022-08-16T22:14:51.065Z,59.6
2022-08-16T22:20:27.548Z,59.4
2022-08-16T22:25:37.930Z,59.8
2022-08-16T22:30:20.290Z,59.8
2022-08-16T22:35:26.636Z,60.0
2022-08-16T22:40:33.027Z,60.1
2022-08-16T22:50:45.893Z,60.4
2022-08-16T23:00:58.732Z,60.5
2022-08-16T23:06:05.134Z,60.6
2022-08-16T23:11:13.071Z,60.6
2022-08-16T23:16:19.448Z,60.8
2022-08-16T23:21:31.426Z,60.8
2022-08-16T23:26:46.783Z,60.9
2022-08-16T23:31:40.184Z,61.0
2022-08-16T23:36:46.579Z,61.0
2022-08-16T23:42:53.575Z,61.3
2022-08-16T23:47:34.405Z,61.4
2022-08-16T23:52:55.815Z,61.9
2022-08-16T23:58:11.349Z,62.0
